Time;durP1;ratioP1;P1;durP2;ratioP2;P2;SDS_P1;SDS_P2;PMS_P1;PMS_P2;Temp;Humidity;BMP_temperature;BMP_pressure;BME280_temperature;BME280_humidity;BME280_pressure;Samples;Min_cycle;Max_cycle;Signal;HPM_P1;HPM_P2
2023/06/20 00:03:45;;;;;;;13.65;9.18;;;;;;;18.13;100.00;100939.47;10406289;28;20084;-81
2023/06/20 00:08:45;;;;;;;17.88;8.82;;;;;;;18.12;100.00;100939.44;10409698;28;20045;-81
2023/06/20 00:13:46;;;;;;;13.25;9.38;;;;;;;18.14;100.00;100938.59;10401151;28;20463;-81
2023/06/20 00:18:53;;;;;;;18.75;9.63;;;;;;;18.15;100.00;100929.78;10400041;28;20132;-81
2023/06/20 00:23:54;;;;;;;14.77;10.63;;;;;;;18.17;100.00;100932.47;10384142;28;20171;-81
2023/06/20 00:28:55;;;;;;;13.35;9.40;;;;;;;18.14;100.00;100930.66;10400011;28;20135;-81
2023/06/20 00:33:55;;;;;;;13.95;9.13;;;;;;;18.13;100.00;100926.22;10385297;28;20400;-80
2023/06/20 00:38:56;;;;;;;19.00;11.52;;;;;;;18.13;100.00;100920.91;10416440;28;20132;-80
2023/06/20 00:43:56;;;;;;;13.95;8.93;;;;;;;18.14;100.00;100932.41;10399209;28;20053;-81
2023/06/20 00:48:57;;;;;;;12.18;8.73;;;;;;;18.14;100.00;100927.13;10401101;28;20077;-81
2023/06/20 00:53:57;;;;;;;16.38;10.50;;;;;;;18.16;100.00;100920.09;10398439;28;20371;-81
2023/06/20 00:58:58;;;;;;;13.48;10.07;;;;;;;18.13;100.00;100920.91;10404646;28;20045;-81
2023/06/20 01:03:58;;;;;;;14.50;9.50;;;;;;;18.22;100.00;100943.13;10407184;28;20442;-80
2023/06/20 01:09:06;;;;;;;12.40;9.52;;;;;;;18.18;100.00;100943.06;10407670;28;20046;-81
2023/06/20 01:14:12;;;;;;;21.27;8.02;;;;;;;18.15;100.00;100936.84;10391327;28;20037;-81
2023/06/20 01:19:48;;;;;;;14.77;9.75;;;;;;;18.09;100.00;100927.03;10459251;28;20110;-81
2023/06/20 01:24:58;;;;;;;15.05;11.50;;;;;;;18.08;100.00;100929.66;10413924;28;20603;-81
2023/06/20 01:30:15;;;;;;;14.25;10.48;;;;;;;17.96;100.00;100925.91;10447548;28;20538;-81
2023/06/20 01:35:19;;;;;;;16.65;10.32;;;;;;;17.88;100.00;100924.88;10368187;28;20398;-81
2023/06/20 01:40:19;;;;;;;12.38;10.40;;;;;;;17.81;100.00;100926.50;10375685;28;20474;-81
2023/06/20 01:45:20;;;;;;;15.88;10.55;;;;;;;17.75;100.00;100923.72;10406367;28;20045;-81
2023/06/20 01:50:20;;;;;;;13.90;9.90;;;;;;;17.75;100.00;100921.09;10402317;28;20134;-81
2023/06/20 01:55:22;;;;;;;14.30;10.60;;;;;;;17.78;100.00;100913.19;10420589;28;20123;-80
2023/06/20 02:00:23;;;;;;;15.73;11.65;;;;;;;17.72;100.00;100916.63;10440959;28;20040;-81
2023/06/20 02:05:23;;;;;;;14.70;11.20;;;;;;;17.73;100.00;100925.44;10393362;28;20045;-80
2023/06/20 02:10:24;;;;;;;16.88;11.15;;;;;;;17.72;100.00;100927.22;10404223;28;20038;-80
2023/06/20 02:15:26;;;;;;;17.90;10.45;;;;;;;17.80;100.00;100915.88;10431019;28;20044;-81
2023/06/20 02:20:26;;;;;;;14.47;9.13;;;;;;;17.80;100.00;100921.19;10442383;28;20045;-80
2023/06/20 02:25:29;;;;;;;17.05;10.55;;;;;;;17.75;100.00;100915.78;10433304;28;20065;-80
2023/06/20 02:30:31;;;;;;;13.82;10.38;;;;;;;17.71;100.00;100920.16;10417037;28;20033;-81
2023/06/20 02:35:32;;;;;;;13.75;10.98;;;;;;;17.66;100.00;100923.53;10403886;28;20149;-81
2023/06/20 02:40:32;;;;;;;10.75;9.00;;;;;;;17.65;100.00;100930.63;10387692;28;20516;-81
2023/06/20 02:45:33;;;;;;;15.63;10.27;;;;;;;17.65;100.00;100925.31;10387745;28;20037;-81
2023/06/20 02:50:33;;;;;;;13.00;9.95;;;;;;;17.61;100.00;100931.41;10403210;28;20470;-81
2023/06/20 02:55:45;;;;;;;14.68;10.52;;;;;;;17.58;100.00;100942.81;10432546;28;20473;-80
2023/06/20 03:00:49;;;;;;;14.68;10.80;;;;;;;17.56;100.00;100938.38;10361774;28;20034;-80
2023/06/20 03:05:49;;;;;;;16.50;10.88;;;;;;;17.52;100.00;100931.22;10379513;28;20050;-79
2023/06/20 03:10:49;;;;;;;16.80;10.55;;;;;;;17.48;100.00;100926.75;10384094;28;20076;-80
2023/06/20 03:15:50;;;;;;;17.38;12.07;;;;;;;17.44;100.00;100926.69;10419300;28;20396;-81
2023/06/20 03:20:52;;;;;;;16.30;12.30;;;;;;;17.44;100.00;100920.47;10440737;28;20504;-81
2023/06/20 03:25:53;;;;;;;16.53;12.10;;;;;;;17.42;100.00;100920.47;10428540;28;20115;-82
2023/06/20 03:30:53;;;;;;;14.10;10.73;;;;;;;17.42;100.00;100919.56;10442718;28;20272;-81
2023/06/20 03:35:54;;;;;;;17.73;11.73;;;;;;;17.42;100.00;100919.56;10430995;28;20135;-80
2023/06/20 03:40:54;;;;;;;16.77;12.07;;;;;;;17.43;100.00;100937.22;10440341;28;20116;-80
2023/06/20 03:45:55;;;;;;;15.30;10.63;;;;;;;17.45;100.00;100946.06;10403133;28;20124;-80
2023/06/20 03:50:55;;;;;;;13.60;10.02;;;;;;;17.45;100.00;100938.13;10401622;28;20600;-80
2023/06/20 03:55:56;;;;;;;13.88;9.80;;;;;;;17.49;100.00;100960.28;10407624;28;20076;-78
2023/06/20 04:00:56;;;;;;;14.13;10.10;;;;;;;17.53;100.00;100952.41;10393004;28;20037;-77
2023/06/20 04:06:00;;;;;;;11.93;9.35;;;;;;;17.60;100.00;100951.69;10321810;28;20129;-79
2023/06/20 04:11:01;;;;;;;10.02;8.23;;;;;;;17.67;100.00;100957.09;10406171;28;20047;-78
2023/06/20 04:16:02;;;;;;;13.95;9.80;;;;;;;17.69;100.00;100958.00;10428575;28;20056;-77
2023/06/20 04:21:02;;;;;;;12.90;9.50;;;;;;;17.73;100.00;100950.19;10375412;28;20042;-77
2023/06/20 04:26:03;;;;;;;13.55;10.75;;;;;;;17.84;100.00;100947.72;10320682;28;20499;-77
2023/06/20 04:31:04;;;;;;;14.25;8.85;;;;;;;17.89;100.00;100946.06;10453011;28;20071;-77
2023/06/20 04:36:05;;;;;;;13.25;9.68;;;;;;;17.95;100.00;100957.63;10401886;28;20557;-76
2023/06/20 04:41:06;;;;;;;10.05;7.70;;;;;;;18.05;100.00;100941.06;10454666;28;20045;-77
2023/06/20 04:46:06;;;;;;;14.20;8.43;;;;;;;18.21;100.00;100952.84;10415829;28;20053;-79
2023/06/20 04:51:08;;;;;;;14.07;8.43;;;;;;;18.41;100.00;100942.56;10412606;28;20131;-80
2023/06/20 04:56:09;;;;;;;9.60;7.97;;;;;;;18.56;100.00;100941.94;10430573;28;20056;-75
2023/06/20 05:01:09;;;;;;;13.57;9.48;;;;;;;18.57;100.00;100945.47;10390430;28;20464;-76
2023/06/20 05:06:16;;;;;;;9.68;7.30;;;;;;;18.68;100.00;100938.59;10442114;28;20055;-76
2023/06/20 05:11:17;;;;;;;13.20;6.85;;;;;;;18.83;100.00;100923.78;10393554;28;20517;-77
2023/06/20 05:16:18;;;;;;;9.45;7.63;;;;;;;18.90;100.00;100923.91;10428678;28;20120;-77
2023/06/20 05:21:18;;;;;;;6.75;4.32;;;;;;;18.99;100.00;100920.50;10390702;28;20041;-77
2023/06/20 05:26:19;;;;;;;10.00;5.93;;;;;;;19.17;100.00;100909.28;10400585;28;20128;-76
2023/06/20 05:31:19;;;;;;;9.88;6.72;;;;;;;19.29;100.00;100905.88;10383376;28;20141;-77
2023/06/20 05:36:20;;;;;;;8.65;6.20;;;;;;;19.85;100.00;100908.25;10399924;28;20069;-77
2023/06/20 05:41:20;;;;;;;6.67;4.93;;;;;;;21.67;100.00;100897.91;10405234;28;20128;-76
2023/06/20 05:46:21;;;;;;;5.17;3.80;;;;;;;23.10;100.00;100873.81;10370756;28;20133;-77
2023/06/20 05:51:21;;;;;;;5.87;4.37;;;;;;;24.03;100.00;100861.75;10372957;28;20404;-77
2023/06/20 05:56:22;;;;;;;4.57;3.90;;;;;;;24.66;100.00;100864.69;10407305;28;20045;-77
2023/06/20 06:01:22;;;;;;;4.50;3.13;;;;;;;25.03;100.00;100864.28;10386209;28;20549;-77
2023/06/20 06:06:24;;;;;;;4.97;3.67;;;;;;;25.20;100.00;100869.44;10421448;28;20098;-77
2023/06/20 06:11:25;;;;;;;;;;;;;;;25.51;100.00;100869.06;10368198;28;20081;-77
2023/06/20 06:16:26;;;;;;;4.72;3.35;;;;;;;26.41;100.00;100873.00;10394022;28;19953;-77
2023/06/20 06:21:26;;;;;;;4.15;2.85;;;;;;;27.42;100.00;100862.91;10340076;28;20049;-79
2023/06/20 06:26:27;;;;;;;5.65;3.42;;;;;;;27.66;100.00;100865.97;10341794;28;20056;-79
2023/06/20 06:31:28;;;;;;;;;;;;;;;28.10;100.00;100868.50;10351767;28;20124;-78
2023/06/20 06:36:31;;;;;;;4.82;2.90;;;;;;;28.50;97.87;100862.09;10391668;28;19952;-79
2023/06/20 06:41:31;;;;;;;5.53;3.58;;;;;;;28.94;93.41;100859.09;10374233;28;20083;-79
2023/06/20 06:46:32;;;;;;;5.88;3.17;;;;;;;29.55;85.77;100866.25;10387679;28;20362;-78
2023/06/20 06:51:32;;;;;;;6.18;3.05;;;;;;;29.84;82.52;100867.13;10377929;28;20046;-77
2023/06/20 06:56:33;;;;;;;5.85;3.50;;;;;;;29.74;81.66;100877.34;10381854;28;20052;-77
2023/06/20 07:01:33;;;;;;;4.28;3.00;;;;;;;29.99;77.13;100872.97;10381058;28;20501;-79
2023/06/20 07:06:34;;;;;;;7.50;3.83;;;;;;;30.69;73.13;100859.78;10377530;28;20095;-76
2023/06/20 07:11:35;;;;;;;5.20;3.47;;;;;;;30.75;71.37;100875.78;10376446;28;20036;-78
2023/06/20 07:16:35;;;;;;;8.13;4.00;;;;;;;30.56;73.01;100862.91;10384399;28;20045;-79
2023/06/20 07:21:36;;;;;;;4.60;3.42;;;;;;;30.38;75.22;100855.47;10381027;28;20095;-80
2023/06/20 07:26:36;;;;;;;4.22;3.10;;;;;;;30.88;72.88;100859.97;10403798;28;20124;-80
2023/06/20 07:31:37;;;;;;;5.32;3.53;;;;;;;31.04;69.15;100846.78;10422529;28;20055;-82
2023/06/20 07:36:38;;;;;;;6.07;4.10;;;;;;;30.97;69.20;100847.94;10423951;28;20122;-79
2023/06/20 07:41:38;;;;;;;22.52;8.95;;;;;;;31.50;72.92;100844.09;10418232;28;20487;-78
2023/06/20 07:46:39;;;;;;;4.13;2.88;;;;;;;31.36;64.38;100852.75;10396956;28;20195;-78
2023/06/20 07:51:40;;;;;;;3.50;2.50;;;;;;;31.07;64.73;100843.94;10362724;28;20050;-78
2023/06/20 07:56:40;;;;;;;7.45;3.50;;;;;;;31.51;66.18;100845.84;10363213;28;20065;-77
2023/06/20 08:01:41;;;;;;;4.53;3.25;;;;;;;31.89;61.14;100829.88;10434156;28;20124;-78
2023/06/20 08:06:41;;;;;;;5.68;3.05;;;;;;;31.74;61.50;100844.06;10391430;28;20069;-77
2023/06/20 08:11:42;;;;;;;6.75;3.67;;;;;;;31.44;62.60;100836.22;10359467;28;20136;-79
2023/06/20 08:16:42;;;;;;;5.70;3.00;;;;;;;32.30;63.02;100839.00;10372678;28;20129;-77
2023/06/20 08:21:43;;;;;;;3.88;3.00;;;;;;;32.58;59.45;100844.09;10402157;28;20068;-77
2023/06/20 08:26:43;;;;;;;4.85;3.03;;;;;;;32.89;58.07;100841.81;10391775;28;20117;-77
2023/06/20 08:31:46;;;;;;;5.35;3.22;;;;;;;32.70;57.52;100837.22;10361798;28;20128;-77
2023/06/20 08:36:46;;;;;;;8.38;3.25;;;;;;;32.81;60.45;100840.31;10360060;28;20038;-77
2023/06/20 08:41:49;;;;;;;5.40;2.90;;;;;;;33.13;57.65;100837.06;10361616;28;20034;-78
2023/06/20 08:46:56;;;;;;;4.45;3.28;;;;;;;32.73;57.71;100826.22;10370982;28;20505;-77
2023/06/20 08:51:58;;;;;;;4.50;2.78;;;;;;;32.90;57.43;100819.19;10370293;28;20188;-77
2023/06/20 08:57:00;;;;;;;4.28;3.08;;;;;;;32.94;57.32;100818.97;10405242;28;20401;-77
2023/06/20 09:02:00;;;;;;;6.03;3.58;;;;;;;33.72;53.82;100814.34;10400389;28;20069;-78
2023/06/20 09:07:01;;;;;;;5.78;3.75;;;;;;;33.67;53.25;100833.59;10400082;28;20449;-79
2023/06/20 09:12:01;;;;;;;3.60;3.05;;;;;;;33.96;52.35;100815.84;10397489;28;20117;-79
2023/06/20 09:17:03;;;;;;;4.28;2.72;;;;;;;33.76;53.11;100826.81;10404370;28;20519;-79
2023/06/20 09:22:04;;;;;;;5.57;3.78;;;;;;;33.87;53.32;100813.56;10383576;28;20041;-79
2023/06/20 09:27:05;;;;;;;4.57;3.38;;;;;;;34.38;49.81;100827.25;10395632;28;20045;-79
2023/06/20 09:32:07;;;;;;;4.97;3.08;;;;;;;33.73;48.90;100840.53;10380055;28;20050;-78
2023/06/20 09:37:09;;;;;;;4.32;3.15;;;;;;;33.91;52.15;100838.72;10407149;28;20056;-76
2023/06/20 09:42:13;;;;;;;5.20;3.05;;;;;;;34.46;48.75;100828.72;10438790;28;20060;-77
2023/06/20 09:47:13;;;;;;;7.95;2.67;;;;;;;34.92;48.33;100836.16;10426163;28;20038;-76
2023/06/20 09:52:14;;;;;;;4.22;3.13;;;;;;;34.70;48.22;100823.75;10386483;28;20041;-75
2023/06/20 09:57:16;;;;;;;5.13;3.80;;;;;;;34.84;47.42;100818.44;10399600;28;20034;-76
2023/06/20 10:02:17;;;;;;;5.53;3.10;;;;;;;34.60;47.11;100822.50;10433611;28;20076;-76
2023/06/20 10:07:17;;;;;;;8.73;3.13;;;;;;;34.47;50.44;100811.44;10406306;28;20075;-76
2023/06/20 10:12:18;;;;;;;4.50;2.83;;;;;;;34.45;46.26;100800.63;10438353;28;20125;-76
2023/06/20 10:17:30;;;;;;;7.00;3.10;;;;;;;34.65;46.57;100799.56;10405689;28;20539;-77
2023/06/20 10:22:43;;;;;;;8.55;3.40;;;;;;;35.35;47.02;100795.69;10421691;28;20116;-77
2023/06/20 10:27:53;;;;;;;3.78;3.15;;;;;;;35.91;44.78;100784.25;10413232;28;20061;-80
2023/06/20 10:33:09;;;;;;;5.25;2.72;;;;;;;36.37;42.57;100779.69;10448857;28;20087;-78
2023/06/20 10:38:10;;;;;;;4.57;2.75;;;;;;;36.33;43.47;100779.03;10456310;28;20078;-78
2023/06/20 10:43:15;;;;;;;7.10;3.08;;;;;;;35.42;44.04;100783.47;10410113;28;20061;-79
2023/06/20 10:48:16;;;;;;;4.78;2.63;;;;;;;35.85;43.11;100766.47;10404776;28;20058;-78
2023/06/20 10:53:16;;;;;;;4.80;2.83;;;;;;;35.91;44.37;100767.06;10369340;28;20109;-80
2023/06/20 10:58:17;;;;;;;3.67;2.90;;;;;;;35.92;45.73;100766.97;10341645;28;20394;-79
2023/06/20 11:03:17;;;;;;;3.45;2.80;;;;;;;37.03;43.47;100769.19;10376250;28;20157;-80
2023/06/20 11:08:22;;;;;;;4.93;2.90;;;;;;;37.03;43.15;100764.63;10378403;28;20049;-78
2023/06/20 11:13:23;;;;;;;4.03;3.05;;;;;;;37.49;42.40;100759.81;10387626;28;20071;-77
2023/06/20 11:18:24;;;;;;;6.18;2.55;;;;;;;37.65;41.04;100756.03;10376758;28;20057;-77
2023/06/20 11:23:24;;;;;;;6.22;3.80;;;;;;;37.51;41.70;100756.97;10343111;28;20079;-77
2023/06/20 11:28:25;;;;;;;5.82;3.08;;;;;;;36.66;40.39;100749.75;10383505;28;20045;-77
2023/06/20 11:33:27;;;;;;;6.65;3.38;;;;;;;36.76;38.91;100731.81;10364968;28;20045;-77
2023/06/20 11:38:28;;;;;;;4.65;2.95;;;;;;;36.21;40.95;100734.34;10405314;28;20052;-77
2023/06/20 11:43:37;;;;;;;5.53;3.35;;;;;;;35.35;43.20;100733.13;10344633;28;20041;-77
2023/06/20 11:48:48;;;;;;;6.65;2.97;;;;;;;36.05;41.99;100731.75;10389331;28;20052;-76
2023/06/20 11:54:05;;;;;;;8.40;3.60;;;;;;;35.12;43.65;100726.34;10385696;28;20037;-77
2023/06/20 11:59:05;;;;;;;4.93;3.17;;;;;;;35.46;41.72;100734.31;10413630;28;20038;-77
2023/06/20 12:04:07;;;;;;;7.80;3.05;;;;;;;34.51;43.33;100721.53;10452277;28;20033;-76
2023/06/20 12:09:08;;;;;;;4.80;3.40;;;;;;;34.90;44.80;100726.66;10382301;28;20044;-76
2023/06/20 12:14:09;;;;;;;4.53;3.20;;;;;;;35.35;44.69;100718.66;10401209;28;20087;-77
2023/06/20 12:19:10;;;;;;;4.00;3.10;;;;;;;36.26;40.82;100706.84;10401383;28;20120;-77
2023/06/20 12:24:11;;;;;;;4.10;2.58;;;;;;;36.27;40.25;100724.94;10403493;28;20042;-76
2023/06/20 12:29:11;;;;;;;5.03;2.78;;;;;;;36.84;38.78;100723.16;10422659;28;20076;-78
2023/06/20 12:34:12;;;;;;;4.68;2.65;;;;;;;37.28;38.13;100726.63;10398878;28;20045;-78
2023/06/20 12:39:12;;;;;;;4.53;2.83;;;;;;;37.20;37.32;100718.09;10401754;28;20041;-77
2023/06/20 12:44:13;;;;;;;4.50;2.70;;;;;;;36.53;37.18;100728.75;10399904;28;20466;-77
2023/06/20 12:49:13;;;;;;;3.92;2.95;;;;;;;36.28;38.42;100705.75;10396108;28;20071;-76
2023/06/20 12:54:14;;;;;;;6.07;3.38;;;;;;;36.54;39.60;100702.38;10400712;28;20068;-77
2023/06/20 12:59:14;;;;;;;6.65;3.70;;;;;;;35.31;41.04;100715.22;10409211;28;20099;-77
2023/06/20 13:04:15;;;;;;;4.35;2.67;;;;;;;34.69;41.93;100710.59;10405892;28;20151;-77
2023/06/20 13:09:16;;;;;;;5.68;3.53;;;;;;;34.72;44.17;100701.41;10395175;28;20191;-77
2023/06/20 13:14:17;;;;;;;4.32;3.30;;;;;;;35.38;41.03;100688.56;10411003;28;20546;-77
2023/06/20 13:19:20;;;;;;;5.07;2.88;;;;;;;35.94;39.87;100687.94;10392744;28;20045;-78
2023/06/20 13:24:21;;;;;;;8.13;3.40;;;;;;;35.33;40.26;100690.69;10392542;28;20065;-79
2023/06/20 13:29:22;;;;;;;4.55;2.95;;;;;;;35.39;41.85;100683.00;10394595;28;20216;-78
2023/06/20 13:34:22;;;;;;;4.38;2.95;;;;;;;33.72;40.84;100667.84;10369779;28;20529;-77
2023/06/20 13:39:26;;;;;;;5.53;3.03;;;;;;;33.68;42.49;100654.44;10392282;28;20065;-77
2023/06/20 13:44:27;;;;;;;6.22;3.60;;;;;;;35.21;41.85;100656.91;10376418;28;20068;-77
2023/06/20 13:49:28;;;;;;;9.02;3.90;;;;;;;34.71;40.17;100662.47;10382911;28;20544;-77
2023/06/20 13:54:29;;;;;;;5.78;3.70;;;;;;;34.27;42.38;100655.88;10419482;28;20381;-77
2023/06/20 13:59:29;;;;;;;5.30;3.10;;;;;;;34.37;41.54;100651.66;10428144;28;20051;-78
2023/06/20 14:04:30;;;;;;;4.72;3.15;;;;;;;35.41;40.15;100651.16;10406054;28;20544;-77
2023/06/20 14:09:30;;;;;;;6.65;4.03;;;;;;;36.58;39.31;100650.28;10403005;28;20057;-78
2023/06/20 14:14:31;;;;;;;5.20;4.03;;;;;;;36.97;37.34;100631.41;10324106;28;20056;-78
2023/06/20 14:19:34;;;;;;;4.90;3.17;;;;;;;37.18;37.46;100623.59;10329915;28;20475;-79
2023/06/20 14:24:34;;;;;;;4.95;3.22;;;;;;;35.28;38.02;100633.81;10359820;28;20076;-80
2023/06/20 14:29:35;;;;;;;8.05;3.55;;;;;;;32.83;43.37;100634.31;10359732;28;20108;-78
2023/06/20 14:34:35;;;;;;;5.00;3.55;;;;;;;31.75;46.11;100626.69;10392645;28;20058;-78
2023/06/20 14:39:36;;;;;;;4.55;3.33;;;;;;;31.00;48.43;100629.84;10389402;28;20061;-76
2023/06/20 14:44:36;;;;;;;;;;;;;;;30.88;49.72;100622.25;10352972;28;20124;-78
2023/06/20 14:49:37;;;;;;;7.63;3.87;;;;;;;31.12;49.93;100623.06;10370346;28;19925;-80
2023/06/20 14:54:37;;;;;;;;;;;;;;;31.63;50.31;100617.28;10377001;28;20041;-74
2023/06/20 14:59:38;;;;;;;6.00;3.23;;;;;;;31.75;48.34;100605.97;10423670;28;19975;-78
2023/06/20 15:04:38;;;;;;;5.43;3.80;;;;;;;31.81;49.14;100599.38;10397685;28;20110;-76
2023/06/20 15:09:38;;;;;;;;;;;;;;;31.82;49.39;100595.72;10417477;28;20128;-84
2023/06/20 15:14:39;;;;;;;7.73;4.17;;;;;;;31.62;50.33;100599.31;10400089;28;20316;-79
2023/06/20 15:19:40;;;;;;;;;;;;;;;31.33;53.44;100599.66;10389366;28;20110;-83
2023/06/20 15:24:40;;;;;;;6.27;3.77;;;;;;;31.38;57.10;100603.97;10379509;28;20357;-76
2023/06/20 15:29:40;;;;;;;;;;;;;;;31.12;53.97;100597.84;10367370;28;20561;-76
2023/06/20 15:34:41;;;;;;;6.50;4.15;;;;;;;30.44;55.16;100596.94;10409017;28;19921;-76
2023/06/20 15:39:43;;;;;;;13.55;8.55;;;;;;;30.00;59.15;100600.47;10406227;28;20132;-76
2023/06/20 15:44:46;;;;;;;9.20;5.15;;;;;;;29.54;58.30;100605.69;10369887;28;20122;-77
2023/06/20 15:49:46;;;;;;;7.85;5.20;;;;;;;29.19;58.32;100598.84;10388689;28;20047;-75
2023/06/20 15:54:47;;;;;;;6.03;3.87;;;;;;;28.84;59.87;100601.78;10368749;28;20445;-77
2023/06/20 15:59:49;;;;;;;8.80;4.97;;;;;;;28.85;59.60;100609.81;10397095;28;20045;-76
2023/06/20 16:04:49;;;;;;;6.30;3.67;;;;;;;28.72;62.84;100605.72;10376786;28;20041;-78
2023/06/20 16:09:51;;;;;;;6.40;4.27;;;;;;;28.72;62.91;100609.28;10457165;28;20124;-79
2023/06/20 16:14:51;;;;;;;5.00;3.35;;;;;;;28.42;65.84;100620.09;10435939;28;20279;-79
2023/06/20 16:19:52;;;;;;;6.00;3.90;;;;;;;28.25;66.78;100619.72;10396749;28;20128;-77
2023/06/20 16:24:53;;;;;;;9.83;6.87;;;;;;;28.11;67.50;100620.13;10434842;28;20040;-77
2023/06/20 16:29:53;;;;;;;12.00;8.30;;;;;;;28.16;69.48;100628.06;10368029;28;20383;-77
2023/06/20 16:34:54;;;;;;;5.60;4.38;;;;;;;27.97;70.98;100624.09;10379445;28;20045;-80
2023/06/20 16:39:56;;;;;;;6.60;4.53;;;;;;;27.83;72.93;100640.59;10367044;28;20193;-77
2023/06/20 16:44:57;;;;;;;8.05;4.72;;;;;;;27.73;74.04;100640.91;10420755;28;20048;-80
2023/06/20 16:50:01;;;;;;;8.38;5.25;;;;;;;27.64;75.58;100650.09;10397981;28;20535;-78
2023/06/20 16:55:01;;;;;;;9.48;5.18;;;;;;;27.30;78.96;100653.63;10377277;28;20060;-77
2023/06/20 17:00:03;;;;;;;5.37;3.83;;;;;;;27.03;83.28;100659.69;10401515;28;20060;-79
2023/06/20 17:05:04;;;;;;;7.50;4.63;;;;;;;26.87;86.15;100669.88;10379494;28;20509;-78
2023/06/20 17:10:05;;;;;;;7.23;4.77;;;;;;;26.73;90.64;100688.97;10360862;28;20050;-77
2023/06/20 17:15:06;;;;;;;14.75;5.13;;;;;;;26.15;100.00;100689.31;10360032;28;20045;-77
2023/06/20 17:20:06;;;;;;;11.68;5.25;;;;;;;25.29;100.00;100705.06;10359200;28;20044;-77
2023/06/20 17:25:08;;;;;;;12.67;4.60;;;;;;;24.44;100.00;100713.38;10370087;28;20401;-77
2023/06/20 17:30:08;;;;;;;14.90;6.00;;;;;;;24.08;100.00;100720.91;10400237;28;20481;-77
2023/06/20 17:35:09;;;;;;;9.57;5.20;;;;;;;23.70;100.00;100720.34;10345537;28;20089;-77
2023/06/20 17:40:10;;;;;;;4.93;3.70;;;;;;;23.46;100.00;100722.34;10345715;28;20425;-78
2023/06/20 17:45:10;;;;;;;12.93;4.97;;;;;;;23.49;100.00;100721.44;10376042;28;20053;-77
2023/06/20 17:50:12;;;;;;;6.23;3.57;;;;;;;23.43;100.00;100737.50;10391982;28;20602;-79
2023/06/20 17:55:13;;;;;;;8.10;3.92;;;;;;;23.24;100.00;100743.00;10372002;28;20049;-78
2023/06/20 18:00:19;;;;;;;86.10;11.37;;;;;;;23.07;100.00;100727.03;10418585;28;20038;-79
2023/06/20 18:05:20;;;;;;;5.07;3.90;;;;;;;22.82;100.00;100727.19;10380122;28;20040;-79
2023/06/20 18:10:25;;;;;;;5.47;3.57;;;;;;;22.56;100.00;100711.31;10398876;28;20429;-79
2023/06/20 18:15:28;;;;;;;5.75;4.07;;;;;;;22.45;100.00;100714.00;10375213;28;20096;-79
2023/06/20 18:20:29;;;;;;;8.90;3.80;;;;;;;22.34;100.00;100735.38;10418446;28;20125;-79
2023/06/20 18:25:29;;;;;;;9.20;4.67;;;;;;;22.15;100.00;100746.06;10405517;28;20034;-79
2023/06/20 18:30:31;;;;;;;8.07;4.00;;;;;;;22.25;100.00;100768.25;10405862;28;20553;-79
2023/06/20 18:35:32;;;;;;;8.45;5.53;;;;;;;22.05;100.00;100810.94;10408513;28;20036;-79
2023/06/20 18:40:32;;;;;;;8.10;4.23;;;;;;;21.89;100.00;100820.69;10410468;28;20045;-77
2023/06/20 18:45:33;;;;;;;9.43;3.93;;;;;;;21.77;100.00;100812.69;10364933;28;20168;-77
2023/06/20 18:50:34;;;;;;;4.93;4.13;;;;;;;21.61;100.00;100825.09;10364959;28;20081;-77
2023/06/20 18:55:35;;;;;;;9.18;4.82;;;;;;;21.39;100.00;100796.66;10356053;28;20754;-78
2023/06/20 19:00:35;;;;;;;7.97;5.03;;;;;;;21.21;100.00;100796.63;10389973;28;20033;-77
2023/06/20 19:05:37;;;;;;;8.97;5.63;;;;;;;20.96;100.00;100832.03;10404220;28;20152;-77
2023/06/20 19:10:37;;;;;;;8.40;4.85;;;;;;;20.80;100.00;100843.47;10399170;28;20044;-77
2023/06/20 19:15:38;;;;;;;6.40;4.73;;;;;;;20.69;100.00;100869.97;10402342;28;20061;-78
2023/06/20 19:20:39;;;;;;;9.05;5.72;;;;;;;20.66;100.00;100892.13;10456306;28;20139;-77
2023/06/20 19:25:39;;;;;;;7.93;3.85;;;;;;;20.54;100.00;100927.47;10421543;28;20037;-77
2023/06/20 19:30:40;;;;;;;23.48;6.65;;;;;;;20.45;100.00;100931.84;10372993;28;20080;-77
2023/06/20 19:35:41;;;;;;;7.70;5.72;;;;;;;20.32;100.00;100953.00;10367030;28;20140;-77
2023/06/20 19:40:41;;;;;;;8.27;5.75;;;;;;;20.21;100.00;100954.69;10404163;28;20129;-76
2023/06/20 19:45:42;;;;;;;10.85;6.18;;;;;;;20.23;100.00;100964.44;10404229;28;20551;-76
2023/06/20 19:50:42;;;;;;;11.45;5.60;;;;;;;20.21;100.00;101008.69;10399715;28;20120;-77
2023/06/20 19:55:43;;;;;;;9.15;5.95;;;;;;;20.20;100.00;101054.75;10362394;28;20120;-78
2023/06/20 20:00:47;;;;;;;13.98;6.28;;;;;;;19.69;100.00;101053.22;10409048;28;20515;-77
2023/06/20 20:05:48;;;;;;;14.32;6.38;;;;;;;18.86;100.00;101072.31;10408109;28;20041;-76
2023/06/20 20:10:48;;;;;;;9.25;6.38;;;;;;;18.38;100.00;101074.13;10400555;28;20048;-76
2023/06/20 20:15:49;;;;;;;11.30;6.53;;;;;;;18.08;100.00;101099.16;10443083;28;20033;-75
2023/06/20 20:20:49;;;;;;;9.18;6.50;;;;;;;17.95;100.00;101114.75;10433480;28;20125;-76
2023/06/20 20:25:50;;;;;;;12.20;7.95;;;;;;;17.84;100.00;101095.97;10400541;28;20492;-76
2023/06/20 20:30:52;;;;;;;13.55;7.75;;;;;;;17.78;100.00;101135.56;10411887;28;20080;-75
2023/06/20 20:35:52;;;;;;;11.48;7.28;;;;;;;17.76;100.00;101145.22;10375079;28;20049;-76
2023/06/20 20:40:53;;;;;;;13.13;8.73;;;;;;;17.73;100.00;101154.00;10384164;28;20111;-76
2023/06/20 20:45:53;;;;;;;11.02;8.68;;;;;;;17.76;100.00;101172.59;10375372;28;20509;-75
2023/06/20 20:50:57;;;;;;;14.07;8.07;;;;;;;17.84;100.00;101179.81;10416210;28;20119;-76
2023/06/20 20:55:57;;;;;;;15.15;11.13;;;;;;;17.85;100.00;101192.19;10408388;28;20040;-76
2023/06/20 21:00:58;;;;;;;12.35;9.30;;;;;;;17.76;100.00;101171.69;10399667;28;20055;-76
2023/06/20 21:05:58;;;;;;;10.98;9.38;;;;;;;17.70;100.00;101168.91;10380489;28;20132;-75
2023/06/20 21:10:59;;;;;;;15.20;10.50;;;;;;;17.69;100.00;101138.91;10401290;28;20069;-74
2023/06/20 21:15:59;;;;;;;14.80;10.95;;;;;;;17.70;100.00;101115.97;10403586;28;20065;-75
2023/06/20 21:21:00;;;;;;;13.55;10.43;;;;;;;17.67;100.00;101121.19;10441756;28;20094;-75
2023/06/20 21:26:00;;;;;;;15.73;12.32;;;;;;;17.61;100.00;101117.53;10416675;28;20128;-75
2023/06/20 21:31:02;;;;;;;17.88;11.43;;;;;;;17.53;100.00;101107.66;10409032;28;20112;-75
2023/06/20 21:36:03;;;;;;;15.85;11.13;;;;;;;17.45;100.00;101120.69;10398752;28;20049;-75
2023/06/20 21:41:04;;;;;;;14.77;10.98;;;;;;;17.48;100.00;101136.63;10367687;28;20038;-75
2023/06/20 21:46:05;;;;;;;15.32;12.15;;;;;;;17.44;100.00;101122.47;10412603;28;20120;-75
2023/06/20 21:51:06;;;;;;;18.10;12.27;;;;;;;17.45;100.00;101110.09;10411272;28;20208;-75
2023/06/20 21:56:07;;;;;;;15.05;11.55;;;;;;;17.42;100.00;101099.44;10406626;28;20392;-75
2023/06/20 22:01:11;;;;;;;14.88;11.48;;;;;;;17.40;100.00;101095.88;10404909;28;20117;-75
2023/06/20 22:06:12;;;;;;;24.13;13.57;;;;;;;17.35;100.00;101103.72;10374149;28;20056;-75
2023/06/20 22:11:13;;;;;;;16.10;11.20;;;;;;;17.30;100.00;101111.53;10446150;28;20120;-75
2023/06/20 22:16:13;;;;;;;18.75;10.55;;;;;;;17.30;100.00;101122.13;10406693;28;20037;-77
2023/06/20 22:21:14;;;;;;;13.93;10.63;;;;;;;17.32;100.00;101127.47;10406045;28;20124;-77
2023/06/20 22:26:14;;;;;;;13.55;10.77;;;;;;;17.31;100.00;101126.53;10403418;28;20430;-77
2023/06/20 22:31:15;;;;;;;16.40;11.95;;;;;;;17.30;100.00;101121.25;10404087;28;20083;-77
2023/06/20 22:36:16;;;;;;;18.40;13.07;;;;;;;17.28;100.00;101128.25;10369898;28;20091;-77
2023/06/20 22:41:16;;;;;;;12.70;9.88;;;;;;;17.15;100.00;101111.16;10380827;28;20034;-76
2023/06/20 22:46:18;;;;;;;13.65;10.60;;;;;;;16.99;100.00;101109.91;10405221;28;20079;-76
2023/06/20 22:51:21;;;;;;;14.65;11.57;;;;;;;16.86;100.00;101096.34;10406314;28;20053;-76